createdAt,value
2017-09-25T00:00:12.795Z,95594.17
2017-09-25T00:02:41.150Z,95594.70
2017-09-25T00:05:09.491Z,95594.89
2017-09-25T00:07:37.835Z,95590.28
2017-09-25T00:10:06.182Z,95599.50
2017-09-25T00:12:34.559Z,95595.77
2017-09-25T00:15:03.063Z,95590.50
2017-09-25T00:17:31.530Z,95589.16
2017-09-25T00:19:59.879Z,95592.78
2017-09-25T00:22:28.227Z,95589.06
2017-09-25T00:24:56.602Z,95586.94
2017-09-25T00:27:24.954Z,95582.23
2017-09-25T00:29:53.302Z,95585.64
2017-09-25T00:32:21.674Z,95585.38
2017-09-25T00:34:50.028Z,95582.27
2017-09-25T00:37:18.378Z,95578.88
2017-09-25T00:39:46.774Z,95579.28
2017-09-25T00:42:15.123Z,95577.23
2017-09-25T00:44:43.474Z,95578.02
2017-09-25T00:47:11.863Z,95573.45
2017-09-25T00:49:40.211Z,95574.95
2017-09-25T00:52:08.565Z,95572.61
2017-09-25T00:54:36.915Z,95569.05
2017-09-25T00:57:05.291Z,95564.04
2017-09-25T00:59:33.643Z,95564.23
2017-09-25T01:02:13.723Z,95562.59
2017-09-25T01:04:53.590Z,95556.55
2017-09-25T01:07:21.947Z,95560.34
2017-09-25T01:09:50.286Z,95558.19
2017-09-25T01:12:18.634Z,95559.77
2017-09-25T01:14:46.984Z,95563.69
2017-09-25T01:17:15.453Z,95560.97
2017-09-25T01:19:43.807Z,95560.66
2017-09-25T01:22:12.159Z,95558.37
2017-09-25T01:24:40.530Z,95554.42
2017-09-25T01:27:08.874Z,95554.19
2017-09-25T01:29:37.250Z,95553.34
2017-09-25T01:32:05.608Z,95555.42
2017-09-25T01:34:33.965Z,95547.95
2017-09-25T01:37:02.303Z,95552.83
2017-09-25T01:39:30.647Z,95550.05
2017-09-25T01:41:59.014Z,95553.76
2017-09-25T01:44:27.350Z,95550.90
2017-09-25T01:46:55.691Z,95554.25
2017-09-25T01:49:24.029Z,95552.71
2017-09-25T01:51:52.375Z,95551.14
2017-09-25T01:54:20.718Z,95550.70
2017-09-25T01:56:49.094Z,95546.74
2017-09-25T01:59:17.471Z,95543.64
2017-09-25T02:01:45.813Z,95543.77
2017-09-25T02:04:14.598Z,95543.27
2017-09-25T02:06:42.967Z,95541.64
2017-09-25T02:09:11.308Z,95540.56
2017-09-25T02:11:39.711Z,95533.85
2017-09-25T02:14:08.034Z,95538.98
2017-09-25T02:16:36.381Z,95541.05
2017-09-25T02:19:04.842Z,95538.61
2017-09-25T02:21:33.190Z,95530.69
2017-09-25T02:24:01.533Z,95526.47
2017-09-25T02:26:29.878Z,95518.69
2017-09-25T02:28:58.246Z,95522.74
2017-09-25T02:31:26.620Z,95520.27
2017-09-25T02:33:55.001Z,95523.75
2017-09-25T02:36:23.346Z,95520.43
2017-09-25T02:38:51.818Z,95518.77
2017-09-25T02:41:20.163Z,95519.56
2017-09-25T02:43:48.507Z,95508.86
2017-09-25T02:46:16.850Z,95512.34
2017-09-25T02:48:45.210Z,95514.31
2017-09-25T02:51:13.558Z,95503.55
2017-09-25T02:53:41.926Z,95510.37
2017-09-25T02:56:10.269Z,95509.13
2017-09-25T02:58:38.645Z,95505.03
2017-09-25T03:01:07.007Z,95506.47
2017-09-25T03:03:35.355Z,95505.30
2017-09-25T03:06:04.400Z,95504.64
2017-09-25T03:08:32.752Z,95507.55
2017-09-25T03:11:01.133Z,95502.91
2017-09-25T03:13:30.394Z,95504.16
2017-09-25T03:15:58.792Z,95504.64
2017-09-25T03:18:27.131Z,95505.81
2017-09-25T03:20:55.499Z,95500.61
2017-09-25T03:23:24.055Z,95498.00
2017-09-25T03:25:53.307Z,95494.25
2017-09-25T03:28:22.701Z,95488.84
2017-09-25T03:30:51.053Z,95498.31
2017-09-25T03:33:19.422Z,95486.36
2017-09-25T03:35:47.771Z,95489.07
2017-09-25T03:38:16.127Z,95485.50
2017-09-25T03:40:44.508Z,95497.92
2017-09-25T03:43:12.872Z,95495.84
2017-09-25T03:45:41.239Z,95498.63
2017-09-25T03:48:10.188Z,95500.56
2017-09-25T03:50:38.575Z,95494.62
2017-09-25T03:53:06.935Z,95488.95
2017-09-25T03:55:35.322Z,95489.54
2017-09-25T03:58:03.679Z,95488.14
2017-09-25T04:00:32.029Z,95489.24
2017-09-25T04:03:00.381Z,95493.57
2017-09-25T04:05:28.726Z,95490.38
2017-09-25T04:07:57.127Z,95498.56
2017-09-25T04:10:25.492Z,95502.13
2017-09-25T04:12:53.850Z,95503.03
2017-09-25T04:15:22.235Z,95503.34
2017-09-25T04:17:50.624Z,95502.66
2017-09-25T04:20:18.985Z,95500.06
2017-09-25T04:22:47.372Z,95498.31
2017-09-25T04:25:16.250Z,95496.11
2017-09-25T04:27:44.603Z,95491.68
2017-09-25T04:30:12.980Z,95495.18
2017-09-25T04:32:41.332Z,95503.34
2017-09-25T04:35:09.704Z,95496.48
2017-09-25T04:37:38.106Z,95506.20
2017-09-25T04:40:06.466Z,95501.09
2017-09-25T04:42:36.735Z,95500.32
2017-09-25T04:45:05.085Z,95499.95
2017-09-25T04:47:33.448Z,95502.08
2017-09-25T04:50:01.788Z,95496.19
2017-09-25T04:52:30.149Z,95499.29
2017-09-25T04:54:58.503Z,95499.48
2017-09-25T04:57:26.978Z,95500.90
2017-09-25T04:59:55.343Z,95497.85
2017-09-25T05:02:23.691Z,95495.59
2017-09-25T05:04:52.051Z,95496.05
2017-09-25T05:07:20.391Z,95499.97
2017-09-25T05:09:48.738Z,95503.36
2017-09-25T05:12:17.103Z,95493.88
2017-09-25T05:14:45.465Z,95498.66
2017-09-25T05:17:13.812Z,95500.86
2017-09-25T05:19:42.167Z,95500.25
2017-09-25T05:22:10.551Z,95506.80
2017-09-25T05:24:38.935Z,95504.98
2017-09-25T05:27:07.365Z,95502.78
2017-09-25T05:29:35.737Z,95507.63
2017-09-25T05:32:04.080Z,95500.37
2017-09-25T05:34:32.458Z,95507.31
2017-09-25T05:37:00.839Z,95506.67
2017-09-25T05:39:29.189Z,95507.19
2017-09-25T05:41:57.559Z,95503.77
2017-09-25T05:44:25.931Z,95509.06
2017-09-25T05:46:54.311Z,95514.96
2017-09-25T05:49:22.935Z,95524.58
2017-09-25T05:51:51.389Z,95518.53
2017-09-25T05:54:19.752Z,95518.23
2017-09-25T05:56:48.103Z,95515.40
2017-09-25T05:59:16.474Z,95518.20
2017-09-25T06:01:46.752Z,95521.09
2017-09-25T06:04:15.098Z,95522.23
2017-09-25T06:06:43.489Z,95524.89
2017-09-25T06:09:11.844Z,95527.19
2017-09-25T06:11:40.218Z,95524.28
2017-09-25T06:14:08.574Z,95525.11
2017-09-25T06:16:37.074Z,95523.17
2017-09-25T06:19:05.424Z,95519.56
2017-09-25T06:21:33.809Z,95523.72
2017-09-25T06:24:02.552Z,95512.80
2017-09-25T06:26:30.922Z,95516.66
2017-09-25T06:28:59.350Z,95519.58
2017-09-25T06:31:27.732Z,95518.37
2017-09-25T06:33:56.108Z,95520.61
2017-09-25T06:36:24.504Z,95514.41
2017-09-25T06:38:52.867Z,95524.34
2017-09-25T06:41:21.235Z,95516.95
2017-09-25T06:43:49.617Z,95509.84
2017-09-25T06:46:17.995Z,95510.08
2017-09-25T06:48:46.368Z,95510.91
2017-09-25T06:51:14.723Z,95514.47
2017-09-25T06:53:43.082Z,95509.74
2017-09-25T06:56:11.445Z,95509.48
2017-09-25T06:58:41.733Z,95518.80
2017-09-25T07:01:10.087Z,95521.17
2017-09-25T07:03:38.462Z,95526.17
2017-09-25T07:06:06.805Z,95527.58
2017-09-25T07:08:35.210Z,95529.13
2017-09-25T07:11:04.455Z,95529.34
2017-09-25T07:13:32.811Z,95531.32
2017-09-25T07:16:01.167Z,95531.88
2017-09-25T07:18:29.529Z,95527.19
2017-09-25T07:20:59.787Z,95523.52
2017-09-25T07:23:28.148Z,95525.12
2017-09-25T07:25:56.510Z,95526.59
2017-09-25T07:28:24.880Z,95527.22
2017-09-25T07:30:53.298Z,95525.88
2017-09-25T07:33:21.672Z,95522.24
2017-09-25T07:35:50.007Z,95530.83
2017-09-25T07:38:18.366Z,95523.45
2017-09-25T07:40:47.615Z,95527.95
2017-09-25T07:43:15.964Z,95523.08
2017-09-25T07:45:44.335Z,95523.97
2017-09-25T07:48:12.930Z,95524.54
2017-09-25T07:50:41.548Z,95522.43
2017-09-25T07:53:23.518Z,95520.69
2017-09-25T07:55:52.013Z,95519.77
2017-09-25T07:58:21.303Z,95521.69
2017-09-25T08:00:49.656Z,95519.78
2017-09-25T08:03:18.034Z,95526.31
2017-09-25T08:05:46.415Z,95524.77
2017-09-25T08:08:14.813Z,95521.77
2017-09-25T08:10:43.171Z,95521.75
2017-09-25T08:13:11.529Z,95517.16
2017-09-25T08:15:40.800Z,95524.86
2017-09-25T08:18:09.165Z,95523.08
2017-09-25T08:20:37.527Z,95526.68
2017-09-25T08:23:05.883Z,95524.74
2017-09-25T08:25:34.254Z,95526.77
2017-09-25T08:28:02.845Z,95526.60
2017-09-25T08:30:31.351Z,95525.64
2017-09-25T08:32:59.705Z,95522.61
2017-09-25T08:35:28.057Z,95518.49
2017-09-25T08:37:56.415Z,95517.09
2017-09-25T08:40:24.812Z,95520.17
2017-09-25T08:42:53.179Z,95516.41
2017-09-25T08:45:21.578Z,95516.02
2017-09-25T08:47:49.942Z,95517.94
2017-09-25T08:50:18.308Z,95521.47
2017-09-25T08:52:46.666Z,95523.00
2017-09-25T08:55:15.025Z,95528.23
2017-09-25T08:57:43.409Z,95521.73
2017-09-25T09:00:11.819Z,95517.92
2017-09-25T09:02:40.183Z,95520.44
2017-09-25T09:05:08.598Z,95523.04
2017-09-25T09:07:37.015Z,95518.03
2017-09-25T09:10:05.374Z,95511.06
2017-09-25T09:12:33.753Z,95510.32
2017-09-25T09:15:02.107Z,95514.13
2017-09-25T09:17:30.467Z,95512.80
2017-09-25T09:19:58.872Z,95510.49
2017-09-25T09:22:27.226Z,95507.38
2017-09-25T09:24:55.605Z,95510.69
2017-09-25T09:27:23.974Z,95504.87
2017-09-25T09:29:52.329Z,95510.73
2017-09-25T09:32:20.675Z,95506.23
2017-09-25T09:34:49.039Z,95503.67
2017-09-25T09:37:26.208Z,95492.86
2017-09-25T09:39:54.621Z,95492.51
2017-09-25T09:42:22.979Z,95489.17
2017-09-25T09:44:51.360Z,95489.18
2017-09-25T09:47:19.724Z,95479.20
2017-09-25T09:49:48.072Z,95480.63
2017-09-25T09:52:16.478Z,95476.34
2017-09-25T09:54:44.831Z,95474.75
2017-09-25T09:57:24.956Z,95479.51
2017-09-25T09:59:53.351Z,95479.28
2017-09-25T10:02:21.729Z,95477.05
2017-09-25T10:04:50.108Z,95485.17
2017-09-25T10:07:18.499Z,95489.08
2017-09-25T10:09:46.860Z,95489.52
2017-09-25T10:12:15.248Z,95483.67
2017-09-25T10:14:43.606Z,95479.70
2017-09-25T10:17:11.998Z,95484.53
2017-09-25T10:19:42.383Z,95487.89
2017-09-25T10:22:10.758Z,95483.80
2017-09-25T10:24:39.119Z,95480.76
2017-09-25T10:27:12.346Z,95479.70
2017-09-25T10:29:40.694Z,95478.21
2017-09-25T10:32:09.987Z,95480.88
2017-09-25T10:34:38.351Z,95481.05
2017-09-25T10:37:06.736Z,95488.98
2017-09-25T10:39:35.120Z,95482.59
2017-09-25T10:42:03.476Z,95483.11
2017-09-25T10:44:35.659Z,95482.59
2017-09-25T10:47:04.032Z,95480.90
2017-09-25T10:49:32.406Z,95483.89
2017-09-25T10:52:00.785Z,95482.74
2017-09-25T10:54:29.270Z,95488.48
2017-09-25T10:56:57.620Z,95482.08
2017-09-25T10:59:25.979Z,95481.63
2017-09-25T11:01:54.380Z,95485.47
2017-09-25T11:04:22.743Z,95478.16
2017-09-25T11:06:51.139Z,95474.80
2017-09-25T11:09:19.503Z,95482.31
2017-09-25T11:11:47.883Z,95479.50
2017-09-25T11:14:16.249Z,95473.79
2017-09-25T11:16:44.618Z,95477.52
2017-09-25T11:19:13.106Z,95480.88
2017-09-25T11:21:41.463Z,95478.92
2017-09-25T11:24:09.909Z,95478.27
2017-09-25T11:26:38.291Z,95478.70
2017-09-25T11:29:06.664Z,95474.75
2017-09-25T11:31:35.038Z,95469.76
2017-09-25T11:34:03.419Z,95474.20
2017-09-25T11:36:31.781Z,95480.16
2017-09-25T11:39:00.175Z,95474.41
2017-09-25T11:41:28.532Z,95468.97
2017-09-25T11:43:56.943Z,95471.72
2017-09-25T11:46:25.321Z,95474.36
2017-09-25T11:48:53.736Z,95471.07
2017-09-25T11:51:22.082Z,95470.17
2017-09-25T11:53:50.440Z,95471.95
2017-09-25T11:56:18.863Z,95462.72
2017-09-25T11:58:47.244Z,95472.68
2017-09-25T12:01:15.642Z,95468.92
2017-09-25T12:03:48.904Z,95473.98
2017-09-25T12:06:17.254Z,95467.09
2017-09-25T12:08:45.619Z,95471.69
2017-09-25T12:11:14.118Z,95470.12
2017-09-25T12:13:42.477Z,95471.28
2017-09-25T12:16:10.847Z,95462.85
2017-09-25T12:18:39.233Z,95466.13
2017-09-25T12:21:07.581Z,95468.61
2017-09-25T12:23:35.954Z,95472.53
2017-09-25T12:26:04.318Z,95471.25
2017-09-25T12:28:32.683Z,95473.34
2017-09-25T12:31:01.111Z,95470.83
2017-09-25T12:33:29.550Z,95474.45
2017-09-25T12:35:57.907Z,95470.41
2017-09-25T12:38:26.260Z,95477.29
2017-09-25T12:40:54.619Z,95475.20
2017-09-25T12:43:23.023Z,95469.64
2017-09-25T12:45:51.399Z,95466.63
2017-09-25T12:48:19.752Z,95469.12
2017-09-25T12:50:49.107Z,95470.05
2017-09-25T12:53:17.483Z,95469.89
2017-09-25T12:55:46.062Z,95472.66
2017-09-25T12:58:14.428Z,95471.87
2017-09-25T13:00:42.868Z,95471.60
2017-09-25T13:03:11.231Z,95466.17
2017-09-25T13:05:39.607Z,95470.87
2017-09-25T13:08:08.007Z,95470.52
2017-09-25T13:10:36.371Z,95467.69
2017-09-25T13:13:04.731Z,95471.44
2017-09-25T13:15:33.118Z,95465.77
2017-09-25T13:18:01.471Z,95467.79
2017-09-25T13:20:30.005Z,95467.82
2017-09-25T13:22:58.366Z,95469.65
2017-09-25T13:25:26.722Z,95463.45
2017-09-25T13:27:55.097Z,95458.63
2017-09-25T13:30:23.468Z,95453.66
2017-09-25T13:32:51.959Z,95456.78
2017-09-25T13:35:20.340Z,95454.35
2017-09-25T13:37:48.709Z,95457.05
2017-09-25T13:40:17.197Z,95461.79
2017-09-25T13:42:45.647Z,95455.84
2017-09-25T13:45:13.995Z,95452.45
2017-09-25T13:47:42.372Z,95458.03
2017-09-25T13:50:10.737Z,95453.45
2017-09-25T13:52:39.124Z,95456.01
2017-09-25T13:55:07.522Z,95457.28
2017-09-25T13:57:35.880Z,95455.90
2017-09-25T14:02:37.884Z,95448.67
2017-09-25T14:05:06.247Z,95449.67
2017-09-25T14:07:34.615Z,95449.06
2017-09-25T14:10:02.984Z,95454.79
2017-09-25T14:12:31.384Z,95454.13
2017-09-25T14:14:59.735Z,95451.80
2017-09-25T14:17:28.101Z,95451.44
2017-09-25T14:19:56.483Z,95452.41
2017-09-25T14:22:25.208Z,95448.80
2017-09-25T14:24:53.571Z,95451.53
2017-09-25T14:27:21.941Z,95447.77
2017-09-25T14:29:50.319Z,95448.66
2017-09-25T14:32:18.675Z,95448.39
2017-09-25T14:34:47.031Z,95446.68
2017-09-25T14:37:15.394Z,95443.53
2017-09-25T14:39:43.760Z,95445.77
2017-09-25T14:42:12.114Z,95441.86
2017-09-25T14:44:40.519Z,95442.39
2017-09-25T14:47:08.879Z,95440.45
2017-09-25T14:49:37.258Z,95445.15
2017-09-25T14:52:05.808Z,95442.02
2017-09-25T14:54:34.204Z,95448.02
2017-09-25T14:57:07.287Z,95448.42
2017-09-25T14:59:39.961Z,95450.99
2017-09-25T15:02:08.358Z,95449.95
2017-09-25T15:04:36.719Z,95450.86
2017-09-25T15:07:05.080Z,95448.91
2017-09-25T15:09:33.467Z,95446.56
2017-09-25T15:12:01.935Z,95443.17
2017-09-25T15:14:30.300Z,95443.43
2017-09-25T15:16:58.668Z,95444.34
2017-09-25T15:19:27.026Z,95439.66
2017-09-25T15:21:55.374Z,95444.59
2017-09-25T15:24:23.900Z,95445.25
2017-09-25T15:26:52.520Z,95450.70
2017-09-25T15:29:20.907Z,95453.08
2017-09-25T15:31:49.399Z,95451.25
2017-09-25T15:34:17.789Z,95456.29
2017-09-25T15:36:46.147Z,95453.66
2017-09-25T15:39:14.507Z,95458.34
2017-09-25T15:41:42.872Z,95455.59
2017-09-25T15:44:11.252Z,95452.48
2017-09-25T15:46:39.634Z,95457.77
2017-09-25T15:49:08.014Z,95454.94
2017-09-25T15:51:43.574Z,95452.07
2017-09-25T15:54:11.978Z,95450.72
2017-09-25T15:56:41.569Z,95451.88
2017-09-25T15:59:10.060Z,95455.27
2017-09-25T16:01:38.420Z,95456.86
2017-09-25T16:04:06.958Z,95457.58
2017-09-25T16:06:35.303Z,95453.34
2017-09-25T16:09:04.608Z,95450.79
2017-09-25T16:14:30.341Z,95454.07
2017-09-25T16:16:59.670Z,95452.38
2017-09-25T16:19:28.034Z,95448.06
2017-09-25T16:21:56.438Z,95453.16
2017-09-25T16:24:24.847Z,95447.55
2017-09-25T16:26:53.301Z,95450.53
2017-09-25T16:29:21.675Z,95453.13
2017-09-25T16:31:50.047Z,95449.67
2017-09-25T16:34:18.415Z,95455.60
2017-09-25T16:36:46.803Z,95454.55
2017-09-25T16:39:15.159Z,95454.92
2017-09-25T16:41:43.564Z,95458.13
2017-09-25T16:44:11.927Z,95465.54
2017-09-25T16:46:40.337Z,95463.09
2017-09-25T16:49:08.706Z,95461.38
2017-09-25T16:51:37.990Z,95461.62
2017-09-25T16:54:06.383Z,95461.95
2017-09-25T16:56:34.737Z,95470.08
2017-09-25T16:59:03.131Z,95465.37
2017-09-25T17:01:31.527Z,95466.53
2017-09-25T17:03:59.903Z,95464.81
2017-09-25T17:06:28.382Z,95461.95
2017-09-25T17:08:56.750Z,95458.76
2017-09-25T17:11:25.107Z,95455.21
2017-09-25T17:13:53.479Z,95455.49
2017-09-25T17:16:21.963Z,95450.48
2017-09-25T17:18:50.765Z,95456.20
2017-09-25T17:21:19.549Z,95451.92
2017-09-25T17:23:48.298Z,95458.47
2017-09-25T17:26:17.027Z,95448.73
2017-09-25T17:28:45.454Z,95449.81
2017-09-25T17:31:13.812Z,95452.70
2017-09-25T17:33:42.185Z,95459.02
2017-09-25T17:36:10.629Z,95460.05
2017-09-25T17:38:39.034Z,95465.25
2017-09-25T17:41:07.420Z,95462.59
2017-09-25T17:43:35.930Z,95461.53
2017-09-25T17:46:04.435Z,95467.25
2017-09-25T17:48:32.863Z,95470.84
2017-09-25T17:51:01.238Z,95473.14
2017-09-25T17:53:29.623Z,95472.92
2017-09-25T17:55:58.035Z,95474.91
2017-09-25T17:58:26.423Z,95483.10
2017-09-25T18:00:54.971Z,95488.99
2017-09-25T18:03:23.352Z,95483.91
2017-09-25T18:05:51.715Z,95488.13
2017-09-25T18:08:20.113Z,95484.23
2017-09-25T18:10:48.470Z,95489.95
2017-09-25T18:13:16.827Z,95482.95
2017-09-25T18:15:45.193Z,95489.17
2017-09-25T18:18:13.579Z,95486.55
2017-09-25T18:20:41.946Z,95491.97
2017-09-25T18:23:10.318Z,95500.06
2017-09-25T18:25:39.135Z,95504.27
2017-09-25T18:28:07.503Z,95504.04
2017-09-25T18:33:17.497Z,95509.87
2017-09-25T18:35:56.335Z,95511.75
2017-09-25T18:38:25.026Z,95514.70
2017-09-25T18:40:53.712Z,95512.44
2017-09-25T18:43:22.255Z,95513.16
2017-09-25T18:45:50.841Z,95508.88
2017-09-25T18:48:20.424Z,95511.52
2017-09-25T18:50:48.871Z,95510.55
2017-09-25T18:53:17.354Z,95514.39
2017-09-25T18:55:45.715Z,95509.08
2017-09-25T18:58:14.079Z,95508.40
2017-09-25T19:00:42.431Z,95510.67
2017-09-25T19:03:10.805Z,95512.50
2017-09-25T19:05:39.224Z,95516.15
2017-09-25T19:08:07.613Z,95508.88
2017-09-25T19:10:36.045Z,95518.53
2017-09-25T19:13:04.916Z,95511.73
2017-09-25T19:15:33.270Z,95517.00
2017-09-25T19:18:01.873Z,95516.37
2017-09-25T19:20:30.235Z,95520.13
2017-09-25T19:22:58.600Z,95514.70
2017-09-25T19:25:26.959Z,95522.80
2017-09-25T19:27:55.331Z,95523.83
2017-09-25T19:30:23.687Z,95523.48
2017-09-25T19:32:52.047Z,95522.00
2017-09-25T19:35:20.403Z,95523.09
2017-09-25T19:37:48.758Z,95521.23
2017-09-25T19:40:17.255Z,95521.42
2017-09-25T19:42:45.623Z,95521.97
2017-09-25T19:45:13.997Z,95521.73
2017-09-25T19:47:47.736Z,95520.25
2017-09-25T19:50:18.613Z,95513.45
2017-09-25T19:52:47.886Z,95516.69
2017-09-25T19:55:17.623Z,95518.17
2017-09-25T19:57:49.390Z,95529.92
2017-09-25T20:00:17.965Z,95519.69
2017-09-25T20:02:46.319Z,95520.97
2017-09-25T20:05:14.776Z,95518.41
2017-09-25T20:07:43.159Z,95524.30
2017-09-25T20:10:11.522Z,95520.60
2017-09-25T20:12:40.041Z,95519.45
2017-09-25T20:15:13.933Z,95521.17
2017-09-25T20:17:42.800Z,95520.91
2017-09-25T20:20:11.153Z,95514.38
2017-09-25T20:22:39.508Z,95516.86
2017-09-25T20:25:07.883Z,95514.34
2017-09-25T20:27:36.281Z,95519.34
2017-09-25T20:30:04.872Z,95522.91
2017-09-25T20:32:33.290Z,95519.02
2017-09-25T20:35:01.991Z,95524.77
2017-09-25T20:37:32.952Z,95520.06
2017-09-25T20:40:01.374Z,95519.95
2017-09-25T20:42:49.568Z,95526.20
2017-09-25T20:45:18.248Z,95520.91
2017-09-25T20:47:46.616Z,95522.14
2017-09-25T20:50:14.995Z,95520.66
2017-09-25T20:52:43.343Z,95514.38
2017-09-25T20:55:11.698Z,95519.55
2017-09-25T20:57:40.972Z,95511.83
2017-09-25T21:00:09.334Z,95513.41
2017-09-25T21:02:37.687Z,95507.25
2017-09-25T21:05:06.051Z,95506.64
2017-09-25T21:07:34.415Z,95504.13
2017-09-25T21:10:02.772Z,95504.91
2017-09-25T21:12:31.121Z,95504.78
2017-09-25T21:14:59.502Z,95510.33
2017-09-25T21:17:27.859Z,95506.54
2017-09-25T21:19:56.252Z,95512.16
2017-09-25T21:22:24.623Z,95506.58
2017-09-25T21:24:53.235Z,95511.98
2017-09-25T21:27:25.118Z,95508.28
2017-09-25T21:29:53.475Z,95512.40
2017-09-25T21:32:21.825Z,95507.46
2017-09-25T21:34:50.188Z,95509.98
2017-09-25T21:37:18.543Z,95510.88
2017-09-25T21:39:46.905Z,95514.53
2017-09-25T21:42:15.263Z,95513.20
2017-09-25T21:44:43.621Z,95510.53
2017-09-25T21:47:11.975Z,95508.21
2017-09-25T21:49:42.222Z,95509.06
2017-09-25T21:52:10.574Z,95509.95
2017-09-25T21:54:39.587Z,95512.34
2017-09-25T21:57:07.948Z,95504.31
2017-09-25T21:59:36.342Z,95514.60
2017-09-25T22:02:04.698Z,95505.34
2017-09-25T22:04:33.063Z,95508.66
2017-09-25T22:07:01.495Z,95510.80
2017-09-25T22:09:29.884Z,95501.97
2017-09-25T22:11:58.247Z,95502.56
2017-09-25T22:14:26.599Z,95509.44
2017-09-25T22:16:55.143Z,95508.59
2017-09-25T22:19:23.499Z,95504.14
2017-09-25T22:21:51.865Z,95497.89
2017-09-25T22:24:20.226Z,95497.20
2017-09-25T22:26:48.599Z,95491.52
2017-09-25T22:29:16.967Z,95494.52
2017-09-25T22:31:45.339Z,95494.13
2017-09-25T22:34:13.713Z,95496.17
2017-09-25T22:36:42.106Z,95493.99
2017-09-25T22:39:10.468Z,95496.86
2017-09-25T22:41:38.819Z,95496.88
2017-09-25T22:44:07.225Z,95494.80
2017-09-25T22:46:35.587Z,95493.91
2017-09-25T22:49:03.939Z,95495.95
2017-09-25T22:51:32.299Z,95497.75
2017-09-25T22:54:01.567Z,95496.28
2017-09-25T22:56:29.964Z,95492.02
2017-09-25T22:58:58.316Z,95491.17
2017-09-25T23:01:26.693Z,95497.05
2017-09-25T23:04:04.995Z,95497.68
2017-09-25T23:06:33.347Z,95498.79
2017-09-25T23:09:01.728Z,95493.32
2017-09-25T23:11:30.112Z,95488.41
2017-09-25T23:13:58.495Z,95495.63
2017-09-25T23:16:26.871Z,95488.48
2017-09-25T23:18:55.219Z,95492.83
2017-09-25T23:21:23.586Z,95489.86
2017-09-25T23:23:51.974Z,95492.48
2017-09-25T23:26:20.319Z,95488.97
2017-09-25T23:28:48.714Z,95486.19
2017-09-25T23:31:17.931Z,95494.23
2017-09-25T23:33:46.299Z,95491.19
2017-09-25T23:36:14.641Z,95491.93
2017-09-25T23:38:42.986Z,95499.91
2017-09-25T23:41:11.344Z,95497.34
2017-09-25T23:43:39.696Z,95501.64
2017-09-25T23:46:08.038Z,95499.95
2017-09-25T23:48:36.440Z,95500.41
2017-09-25T23:51:04.793Z,95499.33
2017-09-25T23:53:33.140Z,95500.78
2017-09-25T23:56:01.482Z,95495.22
2017-09-25T23:58:29.967Z,95499.70
